createdAt,value
2023-01-03T00:01:42.883Z,39.95
2023-01-03T00:04:12.804Z,39.45
2023-01-03T00:06:44.693Z,39.50
2023-01-03T00:09:14.774Z,38.00
2023-01-03T00:12:03.852Z,39.57
2023-01-03T00:14:35.387Z,41.13
2023-01-03T00:17:05.412Z,41.30
2023-01-03T00:19:36.411Z,40.55
2023-01-03T00:22:05.949Z,38.83
2023-01-03T00:24:35.427Z,39.30
2023-01-03T00:27:04.967Z,40.70
2023-01-03T00:29:34.527Z,38.75
2023-01-03T00:32:04.272Z,38.47
2023-01-03T00:34:34.309Z,38.85
2023-01-03T00:37:03.571Z,38.73
2023-01-03T00:39:33.110Z,38.67
2023-01-03T00:42:02.450Z,37.95
2023-01-03T00:44:31.890Z,38.67
2023-01-03T00:47:01.476Z,36.30
2023-01-03T00:49:30.857Z,36.75
2023-01-03T00:52:00.144Z,35.80
2023-01-03T00:54:29.475Z,36.95
2023-01-03T00:56:58.745Z,36.77
2023-01-03T00:59:28.088Z,35.35
2023-01-03T01:01:58.086Z,36.37
2023-01-03T01:04:28.413Z,34.87
2023-01-03T01:06:58.894Z,35.13
2023-01-03T01:09:29.106Z,35.40
2023-01-03T01:11:58.479Z,37.00
2023-01-03T01:14:28.694Z,36.65
2023-01-03T01:16:58.687Z,36.97
2023-01-03T01:19:28.664Z,38.75
2023-01-03T01:21:58.105Z,38.45
2023-01-03T01:24:27.509Z,37.70
2023-01-03T01:26:56.846Z,39.05
2023-01-03T01:29:26.433Z,39.40
2023-01-03T01:31:55.886Z,37.45
2023-01-03T01:34:25.695Z,36.77
2023-01-03T01:36:55.154Z,36.70
2023-01-03T01:39:25.413Z,35.15
2023-01-03T01:42:19.467Z,36.25
2023-01-03T01:44:52.008Z,40.43
2023-01-03T01:47:24.791Z,37.98
2023-01-03T01:49:56.610Z,36.63
2023-01-03T01:52:26.950Z,38.25
2023-01-03T01:54:56.319Z,39.95
2023-01-03T01:57:25.890Z,39.97
2023-01-03T01:59:55.352Z,39.85
2023-01-03T02:02:24.874Z,41.03
2023-01-03T02:04:55.558Z,39.35
2023-01-03T02:07:24.992Z,40.37
2023-01-03T02:09:55.566Z,40.17
2023-01-03T02:12:47.185Z,39.80
2023-01-03T02:15:21.904Z,39.65
2023-01-03T02:17:57.090Z,40.00
2023-01-03T02:20:35.115Z,38.70
2023-01-03T02:23:16.589Z,38.35
2023-01-03T02:26:03.595Z,39.80
2023-01-03T02:28:47.294Z,38.75
2023-01-03T02:31:24.539Z,38.80
2023-01-03T02:33:58.133Z,37.93
2023-01-03T02:36:32.077Z,39.27
2023-01-03T02:39:03.890Z,38.95
2023-01-03T02:41:38.637Z,43.52
2023-01-03T02:44:12.740Z,41.70
2023-01-03T02:46:44.855Z,41.05
2023-01-03T02:49:18.404Z,42.58
2023-01-03T02:51:50.851Z,41.70
2023-01-03T02:54:21.746Z,43.55
2023-01-03T02:56:54.495Z,41.35
2023-01-03T02:59:38.898Z,40.65
2023-01-03T03:02:09.072Z,41.15
2023-01-03T03:04:39.676Z,43.10
2023-01-03T03:07:11.680Z,40.95
2023-01-03T03:09:55.395Z,40.20
2023-01-03T03:12:43.283Z,41.30
2023-01-03T03:15:16.638Z,40.50
2023-01-03T03:17:46.674Z,41.70
2023-01-03T03:20:35.021Z,42.55
2023-01-03T03:23:25.799Z,40.05
2023-01-03T03:25:58.643Z,38.95
2023-01-03T03:28:36.179Z,38.85
2023-01-03T03:31:09.296Z,38.90
2023-01-03T03:33:39.632Z,39.23
2023-01-03T03:36:12.666Z,38.05
2023-01-03T03:38:43.125Z,36.35
2023-01-03T03:41:36.366Z,37.60
2023-01-03T03:44:26.809Z,35.80
2023-01-03T03:47:04.115Z,36.45
2023-01-03T03:49:38.137Z,35.55
2023-01-03T03:52:09.106Z,35.15
2023-01-03T03:54:39.772Z,33.70
2023-01-03T03:57:12.719Z,35.30
2023-01-03T03:59:44.561Z,34.40
2023-01-03T04:02:15.704Z,36.68
2023-01-03T04:04:47.794Z,34.73
2023-01-03T04:07:17.057Z,33.28
2023-01-03T04:09:46.579Z,34.90
2023-01-03T04:12:16.037Z,35.10
2023-01-03T04:14:45.405Z,34.80
2023-01-03T04:17:14.866Z,37.00
2023-01-03T04:19:44.373Z,36.35
2023-01-03T04:22:13.794Z,34.65
2023-01-03T04:24:44.242Z,34.10
2023-01-03T04:27:14.170Z,34.30
2023-01-03T04:29:43.358Z,34.05
2023-01-03T04:32:12.890Z,34.95
2023-01-03T04:34:42.265Z,34.80
2023-01-03T04:37:11.660Z,36.25
2023-01-03T04:39:40.893Z,39.97
2023-01-03T04:42:24.781Z,45.45
2023-01-03T04:44:54.110Z,44.95
2023-01-03T04:47:23.738Z,41.65
2023-01-03T04:49:53.279Z,38.90
2023-01-03T04:52:23.021Z,36.50
2023-01-03T04:54:52.262Z,36.27
2023-01-03T04:57:21.720Z,36.30
2023-01-03T04:59:50.976Z,36.05
2023-01-03T05:02:20.492Z,36.00
2023-01-03T05:04:49.876Z,32.40
2023-01-03T05:07:19.279Z,33.65
2023-01-03T05:09:48.719Z,34.25
2023-01-03T05:12:17.995Z,34.85
2023-01-03T05:14:47.247Z,32.85
2023-01-03T05:17:17.404Z,33.57
2023-01-03T05:20:05.310Z,33.40
2023-01-03T05:22:52.813Z,34.10
2023-01-03T05:25:40.025Z,35.10
2023-01-03T05:28:15.242Z,34.05
2023-01-03T05:30:46.455Z,33.90
2023-01-03T05:33:15.975Z,33.20
2023-01-03T05:35:46.718Z,34.25
2023-01-03T05:38:16.261Z,32.97
2023-01-03T05:40:45.600Z,35.85
2023-01-03T05:43:14.946Z,36.97
2023-01-03T05:45:48.834Z,35.20
2023-01-03T05:48:18.795Z,34.00
2023-01-03T05:50:49.344Z,36.10
2023-01-03T05:53:18.668Z,34.80
2023-01-03T05:55:48.299Z,36.95
2023-01-03T05:58:18.773Z,33.90
2023-01-03T06:00:48.381Z,34.70
2023-01-03T06:03:17.771Z,35.50
2023-01-03T06:05:50.437Z,36.75
2023-01-03T06:08:19.961Z,36.55
2023-01-03T06:10:49.289Z,34.33
2023-01-03T06:13:20.156Z,34.95
2023-01-03T06:16:10.301Z,33.35
2023-01-03T06:18:39.714Z,33.95
2023-01-03T06:21:08.967Z,33.23
2023-01-03T06:23:38.273Z,34.50
2023-01-03T06:26:07.695Z,36.75
2023-01-03T06:28:37.397Z,39.75
2023-01-03T06:31:07.041Z,39.83
2023-01-03T06:33:36.604Z,40.00
2023-01-03T06:36:07.705Z,39.70
2023-01-03T06:38:37.022Z,40.10
2023-01-03T06:41:07.028Z,41.67
2023-01-03T06:43:36.251Z,42.80
2023-01-03T06:46:24.148Z,42.95
2023-01-03T06:49:12.615Z,41.95
2023-01-03T06:52:00.242Z,41.30
2023-01-03T06:54:31.146Z,44.10
2023-01-03T06:57:00.502Z,42.53
2023-01-03T06:59:30.184Z,44.30
2023-01-03T07:02:00.137Z,41.60
2023-01-03T07:04:29.761Z,41.80
2023-01-03T07:06:59.188Z,41.45
2023-01-03T07:09:28.555Z,41.43
2023-01-03T07:12:17.829Z,41.20
2023-01-03T07:14:47.643Z,39.60
2023-01-03T07:17:17.449Z,41.93
2023-01-03T07:19:46.755Z,42.45
2023-01-03T07:22:16.309Z,43.40
2023-01-03T07:24:45.491Z,44.60
2023-01-03T07:27:14.836Z,44.63
2023-01-03T07:29:44.315Z,41.63
2023-01-03T07:32:14.134Z,40.75
2023-01-03T07:34:43.689Z,43.60
2023-01-03T07:37:13.148Z,45.50
2023-01-03T07:39:42.450Z,45.80
2023-01-03T07:42:30.278Z,46.75
2023-01-03T07:44:59.904Z,47.10
2023-01-03T07:47:29.217Z,45.85
2023-01-03T07:49:58.508Z,42.50
2023-01-03T07:52:34.028Z,42.37
2023-01-03T07:55:03.584Z,41.35
2023-01-03T07:57:33.125Z,39.95
2023-01-03T08:00:02.973Z,40.80
2023-01-03T08:02:43.041Z,41.20
2023-01-03T08:05:12.754Z,40.45
2023-01-03T08:07:42.569Z,40.90
2023-01-03T08:10:29.970Z,41.25
2023-01-03T08:13:19.116Z,39.70
2023-01-03T08:15:49.994Z,40.50
2023-01-03T08:18:20.776Z,40.80
2023-01-03T08:20:54.661Z,38.75
2023-01-03T08:23:24.774Z,38.90
2023-01-03T08:26:00.276Z,39.55
2023-01-03T08:28:30.531Z,38.57
2023-01-03T08:31:02.470Z,38.30
2023-01-03T08:33:34.264Z,40.15
2023-01-03T08:36:05.612Z,39.70
2023-01-03T08:38:37.521Z,39.23
2023-01-03T08:41:09.445Z,38.53
2023-01-03T08:43:40.913Z,36.60
2023-01-03T08:46:11.610Z,37.83
2023-01-03T08:48:41.411Z,34.97
2023-01-03T08:51:11.847Z,36.73
2023-01-03T08:53:41.170Z,36.17
2023-01-03T08:56:10.946Z,37.07
2023-01-03T08:58:40.379Z,33.87
2023-01-03T09:01:10.913Z,32.70
2023-01-03T09:03:40.346Z,32.17
2023-01-03T09:06:09.909Z,29.47
2023-01-03T09:08:39.355Z,32.45
2023-01-03T09:11:09.158Z,32.55
2023-01-03T09:13:38.587Z,31.35
2023-01-03T09:16:09.608Z,30.57
2023-01-03T09:18:40.055Z,29.80
2023-01-03T09:21:13.450Z,30.95
2023-01-03T09:23:43.641Z,28.07
2023-01-03T09:26:13.175Z,29.90
2023-01-03T09:28:42.981Z,29.10
2023-01-03T09:31:12.775Z,32.25
2023-01-03T09:33:42.051Z,29.72
2023-01-03T09:36:11.710Z,30.02
2023-01-03T09:38:41.949Z,29.42
2023-01-03T09:41:18.318Z,29.48
2023-01-03T09:43:52.934Z,29.67
2023-01-03T09:46:23.831Z,29.50
2023-01-03T09:49:00.162Z,28.45
2023-01-03T09:51:49.649Z,28.83
2023-01-03T09:54:43.393Z,27.85
2023-01-03T09:57:33.891Z,28.70
2023-01-03T10:00:28.525Z,29.07
2023-01-03T10:03:22.526Z,30.77
2023-01-03T10:06:00.332Z,29.02
2023-01-03T10:08:38.958Z,31.25
2023-01-03T10:11:12.264Z,30.60
2023-01-03T10:13:46.832Z,30.43
2023-01-03T10:16:19.699Z,30.77
2023-01-03T10:18:55.216Z,29.82
2023-01-03T10:21:30.442Z,31.02
2023-01-03T10:23:59.861Z,30.08
2023-01-03T10:26:33.119Z,29.00
2023-01-03T10:29:02.738Z,30.45
2023-01-03T10:31:39.188Z,31.45
2023-01-03T10:34:10.411Z,31.30
2023-01-03T10:36:39.801Z,30.27
2023-01-03T10:39:10.199Z,29.32
2023-01-03T10:41:42.601Z,30.43
2023-01-03T10:44:23.493Z,29.07
2023-01-03T10:46:53.989Z,29.48
2023-01-03T10:49:27.908Z,27.82
2023-01-03T10:52:00.368Z,27.50
2023-01-03T10:54:36.384Z,29.12
2023-01-03T10:57:06.207Z,28.20
2023-01-03T10:59:49.866Z,27.52
2023-01-03T11:02:19.400Z,29.50
2023-01-03T11:05:04.891Z,29.87
2023-01-03T11:07:34.363Z,29.27
2023-01-03T11:10:15.213Z,27.90
2023-01-03T11:12:45.415Z,26.30
2023-01-03T11:15:16.606Z,26.85
2023-01-03T11:17:56.432Z,26.05
2023-01-03T11:20:36.781Z,25.95
2023-01-03T11:23:12.089Z,25.95
2023-01-03T11:25:45.398Z,28.12
2023-01-03T11:28:29.024Z,28.10
2023-01-03T11:31:02.739Z,27.22
2023-01-03T11:33:45.119Z,28.77
2023-01-03T11:36:24.586Z,27.15
2023-01-03T11:38:58.772Z,28.55
2023-01-03T11:41:42.974Z,32.78
2023-01-03T11:44:26.626Z,28.35
2023-01-03T11:47:04.811Z,28.23
2023-01-03T11:49:40.618Z,28.70
2023-01-03T11:52:18.890Z,29.20
2023-01-03T11:55:03.004Z,28.90
2023-01-03T11:57:35.974Z,30.12
2023-01-03T12:00:13.737Z,29.72
2023-01-03T12:02:54.814Z,29.92
2023-01-03T12:05:37.433Z,32.95
2023-01-03T12:08:14.234Z,33.02
2023-01-03T12:10:52.996Z,31.48
2023-01-03T12:13:29.800Z,31.37
2023-01-03T12:16:03.771Z,30.97
2023-01-03T12:18:39.398Z,34.58
2023-01-03T12:21:11.258Z,34.38
2023-01-03T12:23:42.417Z,34.45
2023-01-03T12:26:15.507Z,35.57
2023-01-03T12:28:53.140Z,34.00
2023-01-03T12:31:31.633Z,33.73
2023-01-03T12:34:10.093Z,33.20
2023-01-03T12:36:42.132Z,34.08
2023-01-03T12:39:29.217Z,33.55
2023-01-03T12:42:03.736Z,33.67
2023-01-03T12:44:36.376Z,35.25
2023-01-03T12:47:06.256Z,32.83
2023-01-03T12:49:38.448Z,32.30
2023-01-03T12:52:14.990Z,34.48
2023-01-03T12:54:49.837Z,33.83
2023-01-03T12:57:29.723Z,35.08
2023-01-03T13:00:21.258Z,35.23
2023-01-03T13:02:52.917Z,33.90
2023-01-03T13:07:53.512Z,33.95
2023-01-03T13:10:25.698Z,33.83
2023-01-03T13:12:55.553Z,33.85
2023-01-03T13:15:35.427Z,34.75
2023-01-03T13:18:29.903Z,36.33
2023-01-03T13:20:59.504Z,38.78
2023-01-03T13:23:31.495Z,36.20
2023-01-03T13:26:19.244Z,35.03
2023-01-03T13:28:48.815Z,37.55
2023-01-03T13:31:45.596Z,35.85
2023-01-03T13:34:32.468Z,37.53
2023-01-03T13:37:14.533Z,36.53
2023-01-03T13:42:20.353Z,40.23
2023-01-03T13:44:50.324Z,39.60
2023-01-03T13:47:24.184Z,36.28
2023-01-03T13:49:54.281Z,38.15
2023-01-03T13:52:36.551Z,40.85
2023-01-03T13:55:28.437Z,37.03
2023-01-03T13:57:57.936Z,38.75
2023-01-03T14:00:31.089Z,36.13
2023-01-03T14:03:10.696Z,37.90
2023-01-03T14:05:55.931Z,36.17
2023-01-03T14:08:35.215Z,36.20
2023-01-03T14:11:16.195Z,38.00
2023-01-03T14:13:47.006Z,38.90
2023-01-03T14:18:47.897Z,45.78
2023-01-03T14:21:25.567Z,54.58
2023-01-03T14:24:00.314Z,50.23
2023-01-03T14:26:32.018Z,44.75
2023-01-03T14:29:29.902Z,44.60
2023-01-03T14:32:17.755Z,45.58
2023-01-03T14:34:47.436Z,45.25
2023-01-03T14:37:19.080Z,46.05
2023-01-03T14:39:55.819Z,47.75
2023-01-03T14:42:25.950Z,53.85
2023-01-03T14:44:56.528Z,63.42
2023-01-03T14:47:41.305Z,74.65
2023-01-03T14:50:15.238Z,77.50
2023-01-03T14:52:45.944Z,77.45
2023-01-03T14:55:16.967Z,73.57
2023-01-03T14:57:47.356Z,70.37
2023-01-03T15:00:18.745Z,70.90
2023-01-03T15:02:49.158Z,71.43
2023-01-03T15:05:26.432Z,68.47
2023-01-03T15:08:06.696Z,64.37
2023-01-03T15:10:41.981Z,59.80
2023-01-03T15:13:16.221Z,61.02
2023-01-03T15:15:52.900Z,60.28
2023-01-03T15:18:23.378Z,60.35
2023-01-03T15:20:53.735Z,58.58
2023-01-03T15:23:33.674Z,55.40
2023-01-03T15:26:03.996Z,55.85
2023-01-03T15:28:35.999Z,56.30
2023-01-03T15:33:35.728Z,53.02
2023-01-03T15:36:07.036Z,53.60
2023-01-03T15:38:42.534Z,53.63
2023-01-03T15:41:43.171Z,52.20
2023-01-03T15:44:13.501Z,50.08
2023-01-03T15:46:44.101Z,48.02
2023-01-03T15:49:16.754Z,47.90
2023-01-03T15:51:46.369Z,51.05
2023-01-03T15:54:17.985Z,50.15
2023-01-03T15:56:48.544Z,50.33
2023-01-03T15:59:26.827Z,49.83
2023-01-03T16:01:56.433Z,50.05
2023-01-03T16:04:26.472Z,49.38
2023-01-03T16:06:56.194Z,50.33
2023-01-03T16:09:26.729Z,49.23
2023-01-03T16:11:58.545Z,50.15
2023-01-03T16:14:33.017Z,50.05
2023-01-03T16:17:02.656Z,49.63
2023-01-03T16:19:38.497Z,48.55
2023-01-03T16:25:02.599Z,49.90
2023-01-03T16:27:35.035Z,52.45
2023-01-03T16:30:06.720Z,54.03
2023-01-03T16:32:38.438Z,51.83
2023-01-03T16:35:17.076Z,52.40
2023-01-03T16:37:52.719Z,53.15
2023-01-03T16:40:23.827Z,52.48
2023-01-03T16:42:53.279Z,52.15
2023-01-03T16:45:22.644Z,52.70
2023-01-03T16:47:52.651Z,51.37
2023-01-03T16:50:22.139Z,50.48
2023-01-03T16:52:53.122Z,50.65
2023-01-03T16:55:25.481Z,49.38
2023-01-03T17:00:27.072Z,51.90
2023-01-03T17:02:59.241Z,49.48
2023-01-03T17:05:32.658Z,51.53
2023-01-03T17:08:04.419Z,54.63
2023-01-03T17:10:34.854Z,52.30
2023-01-03T17:13:12.085Z,54.40
2023-01-03T17:15:41.972Z,55.12
2023-01-03T17:18:17.384Z,54.95
2023-01-03T17:20:48.924Z,64.50
2023-01-03T17:23:18.780Z,57.00
2023-01-03T17:25:48.788Z,61.77
2023-01-03T17:28:19.705Z,61.42
2023-01-03T17:30:50.592Z,61.15
2023-01-03T17:33:20.198Z,60.55
2023-01-03T17:35:49.713Z,62.78
2023-01-03T17:38:27.404Z,62.98
2023-01-03T17:40:57.759Z,63.20
2023-01-03T17:43:28.254Z,58.90
2023-01-03T17:46:23.762Z,64.90
2023-01-03T17:49:12.841Z,63.90
2023-01-03T17:51:42.245Z,68.35
2023-01-03T17:54:15.646Z,76.25
2023-01-03T17:56:45.529Z,78.10
2023-01-03T17:59:14.779Z,76.80
2023-01-03T18:01:44.394Z,72.22
2023-01-03T18:04:14.051Z,65.97
2023-01-03T18:06:43.505Z,62.65
2023-01-03T18:09:15.452Z,57.57
2023-01-03T18:11:45.197Z,51.33
2023-01-03T18:14:15.255Z,47.70
2023-01-03T18:16:47.665Z,44.33
2023-01-03T18:19:20.957Z,42.45
2023-01-03T18:21:51.879Z,41.77
2023-01-03T18:24:23.720Z,39.60
2023-01-03T18:26:54.920Z,37.80
2023-01-03T18:29:24.282Z,37.63
2023-01-03T18:31:55.176Z,35.28
2023-01-03T18:34:24.725Z,34.27
2023-01-03T18:36:54.599Z,31.02
2023-01-03T18:39:26.199Z,30.57
2023-01-03T18:42:16.991Z,31.42
2023-01-03T18:44:46.273Z,30.23
2023-01-03T18:47:16.577Z,31.30
2023-01-03T18:49:46.409Z,30.90
2023-01-03T18:52:21.588Z,30.77
2023-01-03T18:54:51.808Z,31.95
2023-01-03T18:57:22.384Z,30.75
2023-01-03T18:59:51.712Z,30.62
2023-01-03T19:02:22.102Z,29.30
2023-01-03T19:04:52.119Z,31.05
2023-01-03T19:07:26.048Z,29.50
2023-01-03T19:09:55.625Z,28.60
2023-01-03T19:12:24.815Z,28.83
2023-01-03T19:14:54.073Z,29.23
2023-01-03T19:17:23.419Z,29.07
2023-01-03T19:19:52.953Z,27.85
2023-01-03T19:22:24.516Z,29.07
2023-01-03T19:24:54.600Z,38.57
2023-01-03T19:27:26.748Z,34.00
2023-01-03T19:29:56.462Z,28.55
2023-01-03T19:32:26.792Z,28.62
2023-01-03T19:34:56.796Z,28.92
2023-01-03T19:37:26.382Z,27.98
2023-01-03T19:39:55.810Z,26.90
2023-01-03T19:42:43.560Z,27.63
2023-01-03T19:45:15.910Z,27.58
2023-01-03T19:47:45.514Z,28.07
2023-01-03T19:50:18.119Z,28.10
2023-01-03T19:52:47.912Z,28.30
2023-01-03T19:55:17.799Z,27.52
2023-01-03T19:57:48.407Z,27.58
2023-01-03T20:00:20.411Z,27.17
2023-01-03T20:02:51.395Z,27.15
2023-01-03T20:05:22.414Z,25.57
2023-01-03T20:07:52.214Z,27.13
2023-01-03T20:10:22.549Z,25.70
2023-01-03T20:12:53.183Z,25.57
2023-01-03T20:15:23.817Z,26.93
2023-01-03T20:17:53.601Z,25.23
2023-01-03T20:20:23.436Z,26.62
2023-01-03T20:23:10.357Z,25.62
2023-01-03T20:25:40.345Z,28.10
2023-01-03T20:28:13.265Z,28.77
2023-01-03T20:30:42.529Z,27.15
2023-01-03T20:33:12.089Z,28.73
2023-01-03T20:38:30.767Z,27.77
2023-01-03T20:41:00.505Z,28.65
2023-01-03T20:43:30.262Z,29.30
2023-01-03T20:45:59.641Z,29.35
2023-01-03T20:48:29.859Z,30.83
2023-01-03T20:51:00.194Z,32.70
2023-01-03T20:53:29.535Z,31.68
2023-01-03T20:55:59.125Z,34.83
2023-01-03T20:58:28.373Z,32.67
2023-01-03T21:01:04.664Z,31.65
2023-01-03T21:03:36.106Z,31.17
2023-01-03T21:06:13.591Z,33.15
2023-01-03T21:08:55.321Z,32.00
2023-01-03T21:11:25.366Z,32.08
2023-01-03T21:13:54.564Z,32.15
2023-01-03T21:16:28.408Z,34.90
2023-01-03T21:19:01.689Z,33.67
2023-01-03T21:21:31.943Z,33.95
2023-01-03T21:24:01.730Z,34.50
2023-01-03T21:26:31.459Z,32.45
2023-01-03T21:29:00.814Z,33.60
2023-01-03T21:31:30.217Z,33.38
2023-01-03T21:33:59.915Z,32.47
2023-01-03T21:36:30.730Z,31.77
2023-01-03T21:39:00.705Z,31.87
2023-01-03T21:41:31.235Z,33.87
2023-01-03T21:44:01.020Z,34.15
2023-01-03T21:46:31.130Z,33.13
2023-01-03T21:49:00.635Z,32.23
2023-01-03T21:51:38.203Z,33.95
2023-01-03T21:54:08.591Z,33.77
2023-01-03T21:56:44.453Z,32.73
2023-01-03T21:59:14.351Z,35.63
2023-01-03T22:02:10.603Z,33.50
2023-01-03T22:04:40.465Z,32.83
2023-01-03T22:07:09.954Z,32.37
2023-01-03T22:09:57.320Z,31.93
2023-01-03T22:12:26.676Z,31.30
2023-01-03T22:14:56.122Z,33.33
2023-01-03T22:17:25.416Z,35.93
2023-01-03T22:19:56.910Z,33.33
2023-01-03T22:22:26.176Z,34.93
2023-01-03T22:24:55.576Z,35.13
2023-01-03T22:27:25.028Z,33.23
2023-01-03T22:29:55.606Z,33.90
2023-01-03T22:32:25.283Z,32.43
2023-01-03T22:34:55.592Z,31.65
2023-01-03T22:37:25.243Z,30.83
2023-01-03T22:39:54.474Z,32.57
2023-01-03T22:42:23.773Z,31.70
2023-01-03T22:44:53.107Z,30.37
2023-01-03T22:47:23.903Z,30.23
2023-01-03T22:49:53.396Z,32.83
2023-01-03T22:52:23.170Z,31.47
2023-01-03T22:54:52.517Z,29.80
2023-01-03T22:57:22.047Z,32.40
2023-01-03T22:59:51.276Z,31.63
2023-01-03T23:02:28.985Z,31.97
2023-01-03T23:04:58.945Z,30.60
2023-01-03T23:07:28.581Z,32.37
2023-01-03T23:09:57.976Z,31.25
2023-01-03T23:12:45.627Z,31.93
2023-01-03T23:15:14.917Z,31.63
2023-01-03T23:17:56.162Z,31.30
2023-01-03T23:20:26.781Z,32.67
2023-01-03T23:23:00.022Z,31.60
2023-01-03T23:25:29.955Z,30.43
2023-01-03T23:27:59.421Z,31.60
2023-01-03T23:30:29.076Z,30.10
2023-01-03T23:32:58.517Z,31.75
2023-01-03T23:35:27.847Z,29.50
2023-01-03T23:37:57.446Z,30.87
2023-01-03T23:40:26.740Z,29.60
2023-01-03T23:42:56.234Z,30.00
2023-01-03T23:45:25.585Z,31.20
2023-01-03T23:47:55.144Z,30.65
2023-01-03T23:50:24.489Z,30.97
2023-01-03T23:52:53.866Z,29.60
2023-01-03T23:55:23.262Z,31.27
2023-01-03T23:57:52.646Z,30.53
